Time;durP1;ratioP1;P1;durP2;ratioP2;P2;SDS_P1;SDS_P2;PMS_P1;PMS_P2;Temp;Humidity;BMP_temperature;BMP_pressure;BME280_temperature;BME280_humidity;BME280_pressure;Samples;Min_cycle;Max_cycle;Signal;HPM_P1;HPM_P2
2022/12/06 00:01:34;;;;;;;;;9.20;6.60;;;;;2.20;82.86;100144.97;5077901;28;8848;-58
2022/12/06 00:04:02;;;;;;;;;7.00;7.00;;;;;2.22;83.24;100142.28;5077846;28;8810;-59
2022/12/06 00:06:30;;;;;;;;;5.60;5.20;;;;;2.22;83.30;100142.28;5077648;28;8857;-59
2022/12/06 00:08:58;;;;;;;;;8.60;6.80;;;;;2.23;83.21;100147.47;5077578;28;9487;-58
2022/12/06 00:11:25;;;;;;;;;7.00;7.00;;;;;2.23;82.83;100144.84;5077108;28;8841;-59
2022/12/06 00:13:53;;;;;;;;;6.00;6.00;;;;;2.23;82.80;100143.97;5077358;28;8810;-59
2022/12/06 00:16:21;;;;;;;;;5.60;5.20;;;;;2.24;82.48;100141.31;5076947;28;8825;-59
2022/12/06 00:18:49;;;;;;;;;4.00;4.00;;;;;2.24;83.06;100145.69;5077314;28;8900;-56
2022/12/06 00:21:17;;;;;;;;;4.80;4.40;;;;;2.24;83.43;100145.69;5076994;28;8854;-56
2022/12/06 00:23:44;;;;;;;;;7.80;7.40;;;;;2.24;83.27;100141.31;5076765;28;8858;-58
2022/12/06 00:26:12;;;;;;;;;6.00;6.00;;;;;2.25;83.07;100137.75;5076889;28;8821;-58
2022/12/06 00:28:40;;;;;;;;;6.00;6.00;;;;;2.26;83.31;100134.19;5076558;28;8825;-56
2022/12/06 00:31:08;;;;;;;;;6.40;5.00;;;;;2.26;82.78;100133.38;5076754;28;8837;-56
2022/12/06 00:33:36;;;;;;;;;4.00;4.00;;;;;2.27;82.78;100141.16;5077041;28;8830;-58
2022/12/06 00:36:04;;;;;;;;;9.20;4.80;;;;;2.27;82.87;100143.78;5076240;28;8906;-56
2022/12/06 00:38:31;;;;;;;;;7.00;6.20;;;;;2.28;82.49;100144.66;5075717;28;8821;-58
2022/12/06 00:41:00;;;;;;;;;5.20;5.20;;;;;2.28;83.13;100147.28;5073998;28;8872;-58
2022/12/06 00:43:28;;;;;;;;;6.00;6.00;;;;;2.29;82.62;100138.47;5074825;28;9824;-55
2022/12/06 00:45:56;;;;;;;;;3.40;3.20;;;;;2.28;82.91;100134.16;5073817;28;8860;-57
2022/12/06 00:48:24;;;;;;;;;5.80;4.20;;;;;2.29;83.04;100147.19;5074937;28;8805;-58
2022/12/06 00:50:52;;;;;;;;;5.60;4.00;;;;;2.30;82.89;100151.56;5075062;28;8818;-56
2022/12/06 00:53:22;;;;;;;;;2.20;1.40;;;;;2.30;82.41;100135.78;5074600;28;9515;-56
2022/12/06 00:55:50;;;;;;;;;9.20;9.20;;;;;2.32;83.09;100149.72;5074932;28;8837;-57
2022/12/06 00:58:18;;;;;;;;;6.60;4.80;;;;;2.33;82.98;100145.28;5076177;28;8921;-57
2022/12/06 01:00:46;;;;;;;;;4.00;3.20;;;;;2.33;82.32;100151.41;5075556;28;8910;-56
2022/12/06 01:03:14;;;;;;;;;5.20;4.00;;;;;2.34;83.22;100144.41;5076032;28;8822;-56
2022/12/06 01:05:43;;;;;;;;;6.00;6.00;;;;;2.35;82.72;100146.94;5075929;28;8841;-58
2022/12/06 01:08:10;;;;;;;;;4.40;4.40;;;;;2.35;83.29;100141.69;5075969;28;8865;-58
2022/12/06 01:10:38;;;;;;;;;4.00;4.00;;;;;2.35;82.92;100144.31;5075677;28;8829;-58
2022/12/06 01:13:06;;;;;;;;;6.00;5.40;;;;;2.36;82.46;100137.28;5075975;28;8913;-58
2022/12/06 01:15:34;;;;;;;;;11.20;10.40;;;;;2.35;83.47;100136.41;5075922;28;8825;-58
2022/12/06 01:18:01;;;;;;;;;4.80;4.80;;;;;2.36;82.92;100143.38;5076215;28;8818;-56
2022/12/06 01:20:29;;;;;;;;;6.20;6.20;;;;;2.37;82.87;100139.00;5075892;28;8919;-56
2022/12/06 01:22:57;;;;;;;;;8.40;7.40;;;;;2.36;82.85;100146.00;5076372;28;9486;-57
2022/12/06 01:25:25;;;;;;;;;7.80;7.00;;;;;2.37;82.95;100145.13;5076265;28;8857;-56
2022/12/06 01:27:54;;;;;;;;;5.20;5.20;;;;;2.37;82.74;100147.75;5075914;28;8845;-57
2022/12/06 01:30:23;;;;;;;;;11.00;7.80;;;;;2.37;83.02;100146.88;5075850;28;8837;-56
2022/12/06 01:32:51;;;;;;;;;4.00;3.00;;;;;2.38;82.71;100143.31;5075909;28;8891;-57
2022/12/06 01:35:19;;;;;;;;;7.80;6.00;;;;;2.38;83.14;100145.94;5076161;28;8872;-56
2022/12/06 01:37:46;;;;;;;;;6.80;6.20;;;;;2.38;82.46;100149.44;5076014;28;8857;-57
2022/12/06 01:40:14;;;;;;;;;2.20;2.20;;;;;2.38;83.16;100152.06;5075701;28;8806;-57
2022/12/06 01:42:42;;;;;;;;;5.60;5.20;;;;;2.39;83.34;100152.91;5075906;28;8844;-55
2022/12/06 01:45:09;;;;;;;;;7.00;7.00;;;;;2.39;82.63;100152.91;5076080;28;8838;-56
2022/12/06 01:47:37;;;;;;;;;0.80;0.80;;;;;2.40;82.75;100149.34;5076015;28;9250;-56
2022/12/06 01:50:05;;;;;;;;;7.40;7.40;;;;;2.40;82.28;100146.72;5075739;28;9523;-58
2022/12/06 01:52:32;;;;;;;;;6.40;5.20;;;;;2.41;82.96;100137.97;5075562;28;8826;-57
2022/12/06 01:55:00;;;;;;;;;9.60;9.60;;;;;2.40;82.87;100142.34;5075402;28;8908;-58
2022/12/06 01:57:28;;;;;;;;;4.80;4.80;;;;;2.40;82.58;100141.47;5074134;28;8876;-58
2022/12/06 01:59:55;;;;;;;;;10.40;9.40;;;;;2.40;82.97;100149.34;5075524;28;8822;-58
2022/12/06 02:02:23;;;;;;;;;6.00;4.80;;;;;2.39;82.64;100147.66;5076025;28;8834;-58
2022/12/06 02:04:51;;;;;;;;;3.60;3.60;;;;;2.40;83.15;100146.72;5076287;28;8818;-57
2022/12/06 02:07:20;;;;;;;;;6.40;6.20;;;;;2.39;83.21;100143.28;5075809;28;8923;-57
2022/12/06 02:09:47;;;;;;;;;7.00;7.00;;;;;2.39;82.65;100139.78;5075651;28;8841;-57
2022/12/06 02:12:15;;;;;;;;;3.60;3.60;;;;;2.39;83.20;100145.03;5075498;28;8821;-58
2022/12/06 02:14:43;;;;;;;;;6.40;4.60;;;;;2.39;82.54;100127.50;5075473;28;8891;-58
2022/12/06 02:17:11;;;;;;;;;3.00;3.00;;;;;2.39;82.96;100129.25;5075403;28;8830;-58
2022/12/06 02:19:41;;;;;;;;;7.00;6.20;;;;;2.39;82.98;100130.13;5075474;28;8838;-58
2022/12/06 02:22:09;;;;;;;;;7.60;6.80;;;;;2.39;82.96;100134.53;5075755;28;8907;-58
2022/12/06 02:24:37;;;;;;;;;5.20;5.20;;;;;2.39;83.56;100135.38;5075237;28;8814;-57
2022/12/06 02:27:04;;;;;;;;;8.60;6.80;;;;;2.40;83.22;100131.84;5075478;28;8802;-58
2022/12/06 02:29:32;;;;;;;;;7.40;6.60;;;;;2.39;82.77;100124.88;5075197;28;8818;-58
2022/12/06 02:32:01;;;;;;;;;2.20;2.20;;;;;2.40;83.13;100121.31;5074969;28;8927;-57
2022/12/06 02:34:28;;;;;;;;;4.40;4.00;;;;;2.41;82.47;100124.81;5075278;28;8915;-58
2022/12/06 02:36:56;;;;;;;;;8.60;7.00;;;;;2.42;83.04;100129.16;5075209;28;8920;-58
2022/12/06 02:39:24;;;;;;;;;6.20;4.00;;;;;2.43;82.98;100121.19;5075401;28;8809;-58
2022/12/06 02:41:52;;;;;;;;;6.40;5.20;;;;;2.43;82.65;100121.19;5075263;28;8830;-58
2022/12/06 02:44:21;;;;;;;;;6.40;6.00;;;;;2.44;82.96;100122.03;5074848;28;8822;-58
2022/12/06 02:46:48;;;;;;;;;7.00;6.60;;;;;2.44;82.66;100122.03;5075259;28;8919;-58
2022/12/06 02:49:16;;;;;;;;;3.00;2.20;;;;;2.45;82.77;100122.00;5075321;28;8809;-58
2022/12/06 02:51:44;;;;;;;;;6.20;5.20;;;;;2.46;82.55;100121.06;5074655;28;8810;-58
2022/12/06 02:54:12;;;;;;;;;1.00;1.00;;;;;2.47;82.46;100127.16;5075099;28;8910;-58
2022/12/06 02:56:39;;;;;;;;;6.60;6.20;;;;;2.47;83.11;100120.13;5075268;28;8829;-58
2022/12/06 02:59:07;;;;;;;;;8.60;6.60;;;;;2.48;82.72;100119.22;5074972;28;8907;-58
2022/12/06 03:01:35;;;;;;;;;6.00;3.80;;;;;2.49;83.50;100118.28;5075500;28;9499;-58
2022/12/06 03:04:03;;;;;;;;;6.20;6.20;;;;;2.50;82.82;100117.38;5075145;28;8806;-58
2022/12/06 03:06:31;;;;;;;;;7.40;5.20;;;;;2.50;83.10;100125.25;5075016;28;8856;-58
2022/12/06 03:08:58;;;;;;;;;3.40;3.20;;;;;2.51;83.29;100119.06;5075177;28;8825;-58
2022/12/06 03:11:29;;;;;;;;;8.60;7.00;;;;;2.51;83.16;100118.22;5078482;28;8834;-58
2022/12/06 03:13:57;;;;;;;;;8.60;7.20;;;;;2.52;82.58;100115.53;5078767;28;8851;-58
2022/12/06 03:16:25;;;;;;;;;4.40;4.00;;;;;2.54;82.53;100116.31;5078289;28;8950;-58
2022/12/06 03:18:52;;;;;;;;;3.20;3.20;;;;;2.55;83.29;100118.03;5078554;28;9623;-57
2022/12/06 03:21:21;;;;;;;;;7.00;6.20;;;;;2.56;82.73;100118.88;5078500;28;8822;-58
2022/12/06 03:23:48;;;;;;;;;4.00;4.00;;;;;2.57;82.59;100129.31;5078506;28;8876;-58
2022/12/06 03:26:17;;;;;;;;;3.60;3.60;;;;;2.59;82.75;100124.00;5078747;28;8852;-58
2022/12/06 03:28:44;;;;;;;;;6.00;4.00;;;;;2.61;82.78;100124.78;5078493;28;8918;-57
2022/12/06 03:31:12;;;;;;;;;6.80;5.80;;;;;2.61;82.88;100128.25;5078040;28;8810;-58
2022/12/06 03:33:41;;;;;;;;;4.60;3.80;;;;;2.63;82.93;100129.03;5078247;28;9637;-58
2022/12/06 03:36:09;;;;;;;;;6.40;4.00;;;;;2.64;83.10;100120.22;5078069;28;8810;-56
2022/12/06 03:38:37;;;;;;;;;4.00;3.60;;;;;2.66;83.21;100117.53;5077889;28;8848;-58
2022/12/06 03:41:04;;;;;;;;;5.20;5.20;;;;;2.68;82.47;100116.56;5078175;28;8817;-58
2022/12/06 03:43:32;;;;;;;;;8.20;6.40;;;;;2.70;83.16;100117.34;5078340;28;8899;-58
2022/12/06 03:46:00;;;;;;;;;3.60;3.20;;;;;2.73;82.83;100106.66;5078295;28;8919;-58
2022/12/06 03:48:28;;;;;;;;;3.80;3.80;;;;;2.76;82.63;100106.56;5077595;28;8810;-58
2022/12/06 03:50:56;;;;;;;;;3.60;3.00;;;;;2.78;82.51;100111.72;5077714;28;8834;-58
2022/12/06 03:53:25;;;;;;;;;3.80;3.60;;;;;2.79;82.29;100106.41;5077614;28;8820;-58
2022/12/06 03:55:52;;;;;;;;;3.20;3.00;;;;;2.81;82.86;100106.34;5077842;28;8906;-58
2022/12/06 03:58:20;;;;;;;;;6.00;6.00;;;;;2.82;82.34;100108.03;5077727;28;8924;-58
2022/12/06 04:00:48;;;;;;;;;4.40;4.40;;;;;2.82;83.15;100110.66;5077484;28;8838;-58
2022/12/06 04:03:15;;;;;;;;;6.20;3.80;;;;;2.82;82.32;100111.53;5077993;28;8810;-58
2022/12/06 04:05:43;;;;;;;;;7.00;4.80;;;;;2.82;82.21;100114.16;5078066;28;8822;-58
2022/12/06 04:08:11;;;;;;;;;3.00;3.00;;;;;2.82;82.60;100100.16;5077868;28;8848;-58
2022/12/06 04:10:39;;;;;;;;;4.00;3.00;;;;;2.83;82.76;100112.38;5077212;28;8826;-58
2022/12/06 04:13:06;;;;;;;;;5.20;5.20;;;;;2.82;82.65;100101.03;5077241;28;8813;-58
2022/12/06 04:15:34;;;;;;;;;7.00;6.00;;;;;2.82;82.72;100101.03;5077521;28;8823;-58
2022/12/06 04:18:12;;;;;;;;;3.00;3.00;;;;;2.83;82.39;100105.34;5077184;28;10006;-58
2022/12/06 04:23:25;;;;;;;;;7.20;6.60;;;;;2.83;82.16;100104.47;5077216;28;8903;-58
2022/12/06 04:25:53;;;;;;;;;4.40;4.00;;;;;2.81;82.85;100115.06;5077443;28;8826;-58
2022/12/06 04:39:21;;;;;;;;;10.00;9.00;;;;;2.76;83.19;100111.81;5077058;28;8845;-58
2022/12/06 04:44:34;;;;;;;;;6.00;4.00;;;;;2.75;83.53;100106.59;5076617;28;8838;-58
2022/12/06 04:47:02;;;;;;;;;5.60;4.80;;;;;2.74;82.85;100099.66;5076657;28;8860;-57
2022/12/06 04:49:33;;;;;;;;;3.20;3.20;;;;;2.74;83.04;100097.84;5076803;28;8809;-57
2022/12/06 04:52:00;;;;;;;;;3.20;3.20;;;;;2.75;82.89;100094.34;5076202;28;8857;-58
2022/12/06 04:54:29;;;;;;;;;6.00;6.00;;;;;2.76;82.84;100093.41;5076496;28;8903;-57
2022/12/06 04:56:57;;;;;;;;;6.40;4.00;;;;;2.77;82.36;100089.84;5076559;28;8918;-58
2022/12/06 04:59:25;;;;;;;;;6.60;4.00;;;;;2.78;83.22;100095.94;5075344;28;8833;-58
2022/12/06 05:01:52;;;;;;;;;7.00;6.00;;;;;2.77;82.70;100091.63;5074063;28;9541;-58
2022/12/06 05:04:20;;;;;;;;;5.20;5.20;;;;;2.78;83.27;100093.31;5075771;28;8842;-57
2022/12/06 05:06:48;;;;;;;;;3.00;1.80;;;;;2.78;83.39;100091.56;5075822;28;9612;-57
2022/12/06 05:09:15;;;;;;;;;3.40;3.00;;;;;2.78;83.55;100088.91;5075918;28;8810;-58
2022/12/06 05:11:43;;;;;;;;;6.00;5.20;;;;;2.79;82.63;100088.00;5076009;28;8814;-58
2022/12/06 05:14:11;;;;;;;;;6.60;4.40;;;;;2.79;82.71;100088.00;5075807;28;8870;-57
2022/12/06 05:16:39;;;;;;;;;7.00;7.00;;;;;2.80;83.27;100092.31;5076375;28;9500;-58
2022/12/06 05:19:06;;;;;;;;;8.20;6.60;;;;;2.80;82.52;100092.31;5075945;28;8830;-58
2022/12/06 05:21:34;;;;;;;;;6.00;5.60;;;;;2.81;83.20;100093.19;5075760;28;8826;-57
2022/12/06 05:24:02;;;;;;;;;3.40;3.40;;;;;2.82;83.25;100093.13;5075547;28;8830;-57
2022/12/06 05:26:30;;;;;;;;;3.80;3.40;;;;;2.83;82.51;100091.34;5075532;28;8860;-58
2022/12/06 05:28:57;;;;;;;;;3.80;3.80;;;;;2.82;83.41;100090.50;5075713;28;8975;-58
2022/12/06 05:31:25;;;;;;;;;3.60;3.60;;;;;2.84;82.83;100096.53;5075068;28;8898;-60
2022/12/06 05:33:53;;;;;;;;;6.00;6.00;;;;;2.85;82.54;100095.59;5074679;28;8832;-57
2022/12/06 05:36:21;;;;;;;;;3.40;3.40;;;;;2.86;82.52;100085.94;5075005;28;8858;-58
2022/12/06 05:38:48;;;;;;;;;5.20;4.40;;;;;2.88;82.64;100090.19;5074845;28;8845;-58
2022/12/06 05:41:18;;;;;;;;;6.20;4.80;;;;;2.90;82.90;100091.00;5074860;28;8829;-57
2022/12/06 05:43:45;;;;;;;;;6.00;4.40;;;;;2.93;82.96;100087.34;5075021;28;8909;-57
2022/12/06 05:46:13;;;;;;;;;6.60;6.00;;;;;2.93;83.10;100084.72;5074630;28;8833;-57
2022/12/06 05:48:41;;;;;;;;;5.60;3.40;;;;;2.93;82.82;100085.59;5074415;28;8944;-61
2022/12/06 05:51:10;;;;;;;;;7.80;7.00;;;;;2.95;82.40;100085.53;5074492;28;8825;-58
2022/12/06 05:53:37;;;;;;;;;3.60;3.60;;;;;2.95;82.39;100083.72;5074593;28;8849;-57
2022/12/06 05:56:06;;;;;;;;;3.80;3.40;;;;;2.96;83.05;100079.34;5074030;28;8837;-58
2022/12/06 05:58:33;;;;;;;;;9.40;7.80;;;;;2.96;82.90;100077.53;5074367;28;8868;-58
2022/12/06 06:01:01;;;;;;;;;5.20;3.00;;;;;2.96;82.52;100084.59;5074096;28;8913;-58
2022/12/06 06:03:30;;;;;;;;;6.20;6.20;;;;;2.97;82.92;100086.28;5073952;28;8833;-58
2022/12/06 06:05:58;;;;;;;;;8.60;7.40;;;;;2.98;82.50;100088.88;5074717;28;8833;-58
2022/12/06 06:08:25;;;;;;;;;6.00;5.60;;;;;2.98;83.00;100083.59;5074345;28;8859;-58
2022/12/06 06:10:53;;;;;;;;;7.00;6.00;;;;;2.99;82.98;100081.81;5074031;28;8896;-58
2022/12/06 06:13:21;;;;;;;;;5.20;5.20;;;;;2.99;82.81;100080.03;5074290;28;8828;-57
2022/12/06 06:15:49;;;;;;;;;9.20;6.80;;;;;3.01;82.70;100078.19;5074298;28;8825;-57
2022/12/06 06:18:17;;;;;;;;;6.20;6.00;;;;;3.01;82.54;100086.06;5074082;28;8825;-57
2022/12/06 06:20:44;;;;;;;;;8.60;6.80;;;;;3.02;82.97;100085.16;5073513;28;8923;-57
2022/12/06 06:23:12;;;;;;;;;6.40;5.60;;;;;3.03;82.76;100084.22;5073543;28;8837;-58
2022/12/06 06:25:40;;;;;;;;;3.60;3.00;;;;;3.05;82.56;100076.28;5073311;28;8833;-57
2022/12/06 06:28:08;;;;;;;;;14.20;12.20;;;;;3.05;82.80;100081.53;5070922;28;9236;-57
2022/12/06 06:30:36;;;;;;;;;7.00;7.00;;;;;3.06;82.16;100089.34;5072058;28;8838;-58
2022/12/06 06:33:03;;;;;;;;;6.60;5.20;;;;;3.06;82.59;100092.00;5072909;28;8865;-57
2022/12/06 06:35:31;;;;;;;;;8.60;8.20;;;;;3.06;82.94;100085.84;5072773;28;8838;-56
2022/12/06 06:38:01;;;;;;;;;6.00;6.00;;;;;3.06;83.31;100083.22;5072213;28;8857;-56
2022/12/06 06:40:28;;;;;;;;;4.40;4.00;;;;;3.07;82.73;100082.31;5072346;28;8833;-58
2022/12/06 06:42:56;;;;;;;;;9.20;8.60;;;;;3.08;82.72;100090.13;5071131;28;8928;-57
2022/12/06 06:45:24;;;;;;;;;9.00;9.00;;;;;3.08;82.80;100090.13;5075562;28;8840;-58
2022/12/06 06:47:55;;;;;;;;;7.00;7.00;;;;;3.10;82.47;100092.69;5075717;28;8842;-58
2022/12/06 06:50:24;;;;;;;;;7.80;7.80;;;;;3.11;82.60;100086.50;5074041;28;8837;-58
2022/12/06 06:52:52;;;;;;;;;8.20;6.40;;;;;3.12;82.53;100090.84;5075167;28;8861;-58
2022/12/06 06:55:19;;;;;;;;;12.20;12.20;;;;;3.14;82.27;100094.25;5075107;28;8860;-58
2022/12/06 06:57:47;;;;;;;;;10.40;9.60;;;;;3.14;82.67;100097.75;5075349;28;8880;-58
2022/12/06 07:00:15;;;;;;;;;12.40;7.80;;;;;3.15;82.78;100098.56;5074586;28;8837;-58
2022/12/06 07:02:43;;;;;;;;;6.80;4.80;;;;;3.18;82.63;100095.81;5074026;28;8940;-58
2022/12/06 07:05:11;;;;;;;;;7.40;5.60;;;;;3.18;82.46;100098.44;5073993;28;9529;-58
2022/12/06 07:07:39;;;;;;;;;6.80;6.80;;;;;3.18;82.84;100091.38;5074244;28;8826;-58
2022/12/06 07:10:07;;;;;;;;;7.00;6.00;;;;;3.20;83.01;100094.81;5073867;28;8822;-58
2022/12/06 07:12:34;;;;;;;;;5.20;4.40;;;;;3.22;82.37;100090.34;5073825;28;8838;-57
2022/12/06 07:15:02;;;;;;;;;11.20;9.80;;;;;3.24;83.28;100088.47;5074175;28;8858;-58
2022/12/06 07:17:30;;;;;;;;;5.20;5.20;;;;;3.27;82.82;100092.75;5073941;28;8826;-58
2022/12/06 07:19:58;;;;;;;;;5.00;4.40;;;;;3.27;82.60;100100.63;5074316;28;8864;-58
2022/12/06 07:22:26;;;;;;;;;5.60;5.60;;;;;3.26;82.34;100097.13;5074659;28;8833;-58
2022/12/06 07:24:54;;;;;;;;;9.80;7.40;;;;;3.26;82.82;100098.94;5074134;28;8838;-58
2022/12/06 07:27:22;;;;;;;;;5.00;5.00;;;;;3.25;82.51;100097.22;5073711;28;8817;-58
2022/12/06 07:29:51;;;;;;;;;6.80;6.00;;;;;3.23;82.40;100094.66;5072874;28;8818;-57
2022/12/06 07:32:19;;;;;;;;;11.60;8.20;;;;;3.22;82.92;100092.09;5073217;28;8845;-58
2022/12/06 07:34:47;;;;;;;;;7.60;6.80;;;;;3.21;83.16;100099.16;5073214;28;8849;-58
2022/12/06 07:37:17;;;;;;;;;7.80;7.40;;;;;3.20;83.05;100086.94;5074656;28;8854;-57
2022/12/06 07:39:45;;;;;;;;;11.40;10.60;;;;;3.21;82.65;100096.53;5074763;28;8864;-58
2022/12/06 07:45:06;;;;;;;;;13.60;12.20;;;;;3.21;82.53;100093.91;5075798;28;8852;-58
2022/12/06 07:47:33;;;;;;;;;15.40;13.80;;;;;3.21;82.55;100091.25;5075164;28;9480;-58
2022/12/06 07:50:02;;;;;;;;;13.20;13.20;;;;;3.24;82.75;100091.09;5073890;28;8842;-57
2022/12/06 07:52:29;;;;;;;;;5.60;4.80;;;;;3.24;83.17;100093.75;5071769;28;8934;-58
2022/12/06 07:54:57;;;;;;;;;9.60;8.40;;;;;3.24;83.03;100096.38;5070461;28;8833;-58
2022/12/06 07:57:25;;;;;;;;;10.00;9.80;;;;;3.25;82.68;100092.81;5071321;28;8861;-58
2022/12/06 07:59:54;;;;;;;;;4.40;4.40;;;;;3.27;82.76;100101.47;5071970;28;8834;-57
2022/12/06 08:02:22;;;;;;;;;7.40;7.00;;;;;3.28;83.06;100103.19;5072191;28;8861;-56
2022/12/06 08:04:49;;;;;;;;;6.20;5.20;;;;;3.30;82.37;100109.25;5073224;28;8842;-58
2022/12/06 08:07:17;;;;;;;;;8.00;7.20;;;;;3.31;82.90;100108.31;5073631;28;8976;-58
2022/12/06 08:09:46;;;;;;;;;10.60;8.00;;;;;3.32;82.94;100109.19;5073353;28;8988;-58
2022/12/06 08:12:14;;;;;;;;;8.00;7.20;;;;;3.34;82.51;100112.56;5074539;28;8906;-58
2022/12/06 08:14:42;;;;;;;;;17.40;13.80;;;;;3.35;83.22;100104.63;5073865;28;8829;-58
2022/12/06 08:17:10;;;;;;;;;6.80;4.40;;;;;3.37;82.63;100117.69;5072710;28;9206;-59
2022/12/06 08:19:37;;;;;;;;;9.20;9.00;;;;;3.38;82.61;100122.88;5072301;28;8887;-59
2022/12/06 08:22:06;;;;;;;;;13.80;10.80;;;;;3.40;83.02;100125.44;5072993;28;9064;-59
2022/12/06 08:24:33;;;;;;;;;9.20;8.20;;;;;3.41;82.93;100120.09;5071839;28;9177;-59
2022/12/06 08:27:02;;;;;;;;;4.00;3.40;;;;;3.43;82.53;100123.53;5071915;28;9503;-59
2022/12/06 08:29:29;;;;;;;;;6.00;6.00;;;;;3.45;83.12;100121.66;5071702;28;8896;-59
2022/12/06 08:31:58;;;;;;;;;4.80;4.80;;;;;3.47;82.62;100125.06;5072920;28;8845;-59
2022/12/06 08:34:27;;;;;;;;;4.00;4.00;;;;;3.51;82.91;100121.38;5071866;28;9227;-59
2022/12/06 08:36:55;;;;;;;;;4.00;3.20;;;;;3.53;82.74;100124.78;5070555;28;8869;-60
2022/12/06 08:39:29;;;;;;;;;5.20;4.40;;;;;3.58;82.43;100128.06;5071465;28;8825;-59
2022/12/06 08:42:02;;;;;;;;;8.60;7.60;;;;;3.61;82.62;100129.66;5071586;28;8855;-59
2022/12/06 08:44:31;;;;;;;;;6.00;4.40;;;;;3.63;82.91;100125.19;5071493;28;8842;-59
2022/12/06 08:46:58;;;;;;;;;6.60;6.00;;;;;3.66;82.68;100125.91;5071553;28;8973;-59
2022/12/06 08:49:26;;;;;;;;;8.40;7.40;;;;;3.68;82.21;100129.31;5072890;28;8967;-59
2022/12/06 08:51:54;;;;;;;;;10.00;10.00;;;;;3.70;82.16;100127.44;5072275;28;9251;-59
2022/12/06 08:54:22;;;;;;;;;9.40;8.20;;;;;3.72;82.53;100125.56;5072663;28;9543;-59
2022/12/06 08:56:51;;;;;;;;;14.20;11.20;;;;;3.72;82.17;100129.06;5072403;28;8844;-59
2022/12/06 08:59:18;;;;;;;;;15.80;13.00;;;;;3.73;82.59;100133.41;5073191;28;8830;-59
2022/12/06 09:01:47;;;;;;;;;15.00;13.80;;;;;3.74;81.84;100139.53;5072840;28;8857;-59
2022/12/06 09:04:14;;;;;;;;;0.80;0.80;;;;;3.74;82.77;100134.28;5071959;28;8857;-59
2022/12/06 09:06:42;;;;;;;;;10.00;9.00;;;;;3.75;82.58;100133.34;5070663;28;9511;-59
2022/12/06 09:09:10;;;;;;;;;3.00;3.00;;;;;3.75;82.18;100136.81;5071570;28;8837;-59
2022/12/06 09:11:38;;;;;;;;;6.00;6.00;;;;;3.76;82.03;100140.31;5072475;28;8863;-60
2022/12/06 09:14:07;;;;;;;;;7.80;7.40;;;;;3.77;82.82;100133.28;5072231;28;8861;-60
2022/12/06 09:16:35;;;;;;;;;6.20;6.20;;;;;3.78;82.21;100143.72;5072436;28;9519;-59
2022/12/06 09:19:03;;;;;;;;;7.00;6.00;;;;;3.81;82.05;100138.31;5072693;28;8958;-59
2022/12/06 09:21:32;;;;;;;;;9.80;9.20;;;;;3.83;82.31;100146.97;5072944;28;8836;-59
2022/12/06 09:24:00;;;;;;;;;9.20;7.40;;;;;3.85;82.19;100142.47;5073115;28;8927;-60
2022/12/06 09:26:28;;;;;;;;;10.60;8.40;;;;;3.87;82.31;100133.59;5072899;28;8837;-59
2022/12/06 09:28:56;;;;;;;;;6.40;6.00;;;;;3.89;82.00;100136.16;5073526;28;9507;-60
2022/12/06 09:31:24;;;;;;;;;8.60;6.80;;;;;3.90;82.11;100135.22;5073480;28;8910;-59
2022/12/06 09:33:54;;;;;;;;;3.40;3.20;;;;;3.90;82.41;100138.69;5073754;28;8959;-59
2022/12/06 09:36:22;;;;;;;;;7.00;7.00;;;;;3.91;82.11;100143.06;5073038;28;8865;-60
2022/12/06 09:38:50;;;;;;;;;15.20;14.20;;;;;3.92;82.59;100141.25;5073328;28;9496;-59
2022/12/06 09:41:18;;;;;;;;;13.40;10.40;;;;;3.94;82.03;100142.88;5072701;28;8856;-60
2022/12/06 09:43:45;;;;;;;;;14.80;14.80;;;;;3.97;82.61;100141.88;5070834;28;8854;-59
2022/12/06 09:46:14;;;;;;;;;16.60;16.60;;;;;4.00;81.93;100142.59;5068799;28;8849;-60
2022/12/06 09:48:42;;;;;;;;;12.20;12.20;;;;;4.03;81.96;100141.59;5067910;28;8821;-60
2022/12/06 09:51:15;;;;;;;;;17.40;14.00;;;;;4.07;82.38;100137.84;5068533;28;8906;-60
2022/12/06 09:53:43;;;;;;;;;12.20;12.20;;;;;4.09;82.37;100136.84;5067986;28;8849;-58
2022/12/06 09:56:11;;;;;;;;;6.60;6.00;;;;;4.12;82.27;100141.13;5067635;28;8876;-59
2022/12/06 09:58:40;;;;;;;;;10.80;10.20;;;;;4.14;82.07;100141.88;5068610;28;8853;-60
2022/12/06 10:01:08;;;;;;;;;11.80;10.20;;;;;4.16;82.46;100140.03;5070198;28;8852;-59
2022/12/06 10:03:36;;;;;;;;;15.80;10.40;;;;;4.19;82.31;100137.25;5070380;28;8838;-59
2022/12/06 10:06:04;;;;;;;;;12.80;12.20;;;;;4.21;82.30;100136.25;5070385;28;8841;-59
2022/12/06 10:08:32;;;;;;;;;6.60;6.00;;;;;4.23;81.50;100133.50;5071678;28;8825;-59
2022/12/06 10:11:01;;;;;;;;;14.60;13.20;;;;;4.24;81.83;100130.81;5070371;28;8848;-59
2022/12/06 10:13:35;;;;;;;;;5.20;4.40;;;;;4.25;81.83;100131.69;5069392;28;9592;-59
2022/12/06 10:16:03;;;;;;;;;13.00;10.80;;;;;4.26;81.63;100125.47;5069386;28;8849;-60
2022/12/06 10:18:31;;;;;;;;;7.40;6.40;;;;;4.28;82.43;100123.59;5071417;28;8855;-60
2022/12/06 10:20:59;;;;;;;;;10.40;9.40;;;;;4.30;82.19;100124.38;5072867;28;8837;-60
2022/12/06 10:23:28;;;;;;;;;13.60;13.00;;;;;4.32;82.36;100122.50;5073233;28;9522;-59
2022/12/06 10:25:56;;;;;;;;;6.00;3.80;;;;;4.34;82.41;100120.66;5071565;28;8845;-59
2022/12/06 10:28:24;;;;;;;;;10.00;9.00;;;;;4.35;82.11;100125.00;5071390;28;8837;-59
2022/12/06 10:30:51;;;;;;;;;3.80;3.20;;;;;4.35;81.84;100117.91;5072726;28;8829;-59
2022/12/06 10:33:19;;;;;;;;;17.20;13.40;;;;;4.37;81.93;100120.47;5073145;28;8830;-59
2022/12/06 10:35:47;;;;;;;;;18.60;15.60;;;;;4.40;82.07;100115.06;5073312;28;8833;-59
2022/12/06 10:38:15;;;;;;;;;12.60;12.60;;;;;4.44;81.73;100112.19;5072842;28;8854;-59
2022/12/06 10:40:43;;;;;;;;;15.00;13.00;;;;;4.49;82.11;100111.94;5073560;28;8829;-59
2022/12/06 10:43:11;;;;;;;;;12.00;10.40;;;;;4.52;81.42;100112.66;5073785;28;8846;-59
2022/12/06 10:48:24;;;;;;;;;11.00;10.40;;;;;4.57;81.61;100107.97;5073066;28;8837;-59
2022/12/06 10:50:51;;;;;;;;;16.80;13.00;;;;;4.60;81.55;100101.69;5072185;28;8829;-57
2022/12/06 10:53:19;;;;;;;;;9.80;8.20;;;;;4.63;81.92;100107.63;5072888;28;8860;-60
2022/12/06 10:55:47;;;;;;;;;18.40;16.00;;;;;4.67;81.54;100095.16;5072664;28;8828;-60
2022/12/06 10:58:15;;;;;;;;;17.40;15.20;;;;;4.70;81.67;100100.25;5071186;28;8850;-59
2022/12/06 11:00:44;;;;;;;;;11.20;10.00;;;;;4.71;81.48;100094.06;5072374;28;8822;-59
2022/12/06 11:03:12;;;;;;;;;5.60;3.80;;;;;4.73;81.51;100093.03;5071695;28;8830;-59
2022/12/06 11:05:40;;;;;;;;;10.40;9.60;;;;;4.76;81.40;100098.16;5072155;28;8841;-60
2022/12/06 11:08:08;;;;;;;;;8.80;7.80;;;;;4.76;81.49;100092.88;5072729;28;8946;-59
2022/12/06 11:10:35;;;;;;;;;13.80;12.60;;;;;4.77;81.79;100083.16;5072415;28;8826;-59
2022/12/06 11:13:05;;;;;;;;;16.80;13.80;;;;;4.78;81.45;100087.53;5071733;28;9297;-59
2022/12/06 11:15:33;;;;;;;;;13.80;11.60;;;;;4.78;82.02;100088.38;5072145;28;8849;-59
2022/12/06 11:18:01;;;;;;;;;11.40;11.40;;;;;4.79;81.37;100092.69;5072814;28;8852;-60
2022/12/06 11:20:29;;;;;;;;;12.20;9.40;;;;;4.79;81.66;100086.59;5071449;28;8870;-58
2022/12/06 11:23:04;;;;;;;;;12.80;12.00;;;;;4.79;81.82;100086.59;5072152;28;8834;-58
2022/12/06 11:25:34;;;;;;;;;4.80;4.80;;;;;4.78;81.97;100077.81;5072623;28;8842;-58
2022/12/06 11:28:02;;;;;;;;;9.00;7.00;;;;;4.78;81.77;100082.25;5073462;28;8849;-59
2022/12/06 11:30:30;;;;;;;;;7.80;6.80;;;;;4.78;81.87;100084.88;5071752;28;8952;-59
2022/12/06 11:32:58;;;;;;;;;8.60;8.20;;;;;4.76;82.02;100082.31;5072334;28;9229;-59
2022/12/06 11:35:26;;;;;;;;;8.40;7.40;;;;;4.74;81.88;100076.28;5072245;28;8853;-59
2022/12/06 11:37:55;;;;;;;;;1.00;0.80;;;;;4.74;81.85;100076.28;5071618;28;9200;-59
2022/12/06 11:40:23;;;;;;;;;12.80;12.60;;;;;4.74;81.89;100072.78;5070752;28;9507;-59
2022/12/06 11:42:51;;;;;;;;;8.60;7.00;;;;;4.74;82.29;100072.78;5070847;28;8892;-59
2022/12/06 11:45:20;;;;;;;;;15.20;12.00;;;;;4.77;81.93;100072.63;5067736;28;9190;-59
2022/12/06 11:47:48;;;;;;;;;16.40;15.00;;;;;4.81;81.85;100069.75;5069734;28;8942;-58
2022/12/06 11:50:17;;;;;;;;;18.80;15.40;;;;;4.87;81.40;100071.19;5069103;28;8841;-59
2022/12/06 11:52:45;;;;;;;;;13.20;12.60;;;;;4.91;81.51;100070.06;5067176;28;8930;-59
2022/12/06 11:55:14;;;;;;;;;10.20;10.20;;;;;4.96;81.31;100078.59;5068819;28;8840;-59
2022/12/06 11:57:42;;;;;;;;;21.00;20.80;;;;;4.97;81.60;100070.63;5071187;28;8984;-59
2022/12/06 12:00:10;;;;;;;;;10.80;9.40;;;;;5.02;81.91;100076.47;5071109;28;8960;-59
2022/12/06 12:02:40;;;;;;;;;11.40;11.40;;;;;5.06;81.91;100077.16;5071145;28;8841;-57
2022/12/06 12:05:08;;;;;;;;;14.60;14.20;;;;;5.10;81.44;100081.34;5070723;28;8935;-59